createdAt,value
2022-11-15T00:03:05.349Z,100008.84
2022-11-15T00:08:26.193Z,99945.34
2022-11-15T00:13:46.809Z,99943.66
2022-11-15T00:19:07.881Z,99926.50
2022-11-15T00:24:28.880Z,99911.47
2022-11-15T00:29:49.764Z,99942.94
2022-11-15T00:35:10.569Z,99837.94
2022-11-15T00:40:31.705Z,99975.59
2022-11-15T00:45:52.457Z,99897.22
2022-11-15T00:51:13.240Z,99922.63
2022-11-15T00:56:34.271Z,99933.31
2022-11-15T01:01:55.653Z,99925.38
2022-11-15T01:07:16.747Z,99919.34
2022-11-15T01:12:37.624Z,99875.91
2022-11-15T01:17:58.497Z,99768.06
2022-11-15T01:23:19.173Z,99874.72
2022-11-15T01:28:41.434Z,99920.06
2022-11-15T01:34:02.212Z,99808.50
2022-11-15T01:39:23.062Z,99782.25
2022-11-15T01:44:52.010Z,99929.69
2022-11-15T01:50:17.151Z,99772.78
2022-11-15T01:55:38.407Z,99931.16
2022-11-15T02:00:59.401Z,99904.66
2022-11-15T02:06:20.259Z,99904.34
2022-11-15T02:11:41.286Z,99879.56
2022-11-15T02:17:15.615Z,99716.84
2022-11-15T02:23:13.762Z,99902.31
2022-11-15T02:28:49.562Z,99913.00
2022-11-15T02:34:35.010Z,99835.59
2022-11-15T02:40:11.987Z,99907.16
2022-11-15T02:45:36.647Z,99755.41
2022-11-15T02:50:57.986Z,99855.16
2022-11-15T02:56:19.008Z,99899.22
2022-11-15T03:01:58.561Z,99884.38
2022-11-15T03:07:25.302Z,99872.56
2022-11-15T03:12:58.045Z,99743.22
2022-11-15T03:18:24.791Z,99790.09
2022-11-15T03:23:46.148Z,99789.47
2022-11-15T03:29:13.180Z,99761.56
2022-11-15T03:34:46.347Z,99858.75
2022-11-15T03:40:07.637Z,99680.59
2022-11-15T03:45:37.525Z,99770.78
2022-11-15T03:50:58.309Z,99853.06
2022-11-15T03:56:19.224Z,99732.69
2022-11-15T04:01:39.996Z,99739.53
2022-11-15T04:07:00.518Z,99729.72
2022-11-15T04:12:32.067Z,99726.13
2022-11-15T04:17:57.413Z,99843.34
2022-11-15T04:23:39.222Z,99794.81
2022-11-15T04:29:18.756Z,99795.22
2022-11-15T04:34:39.701Z,99781.13
2022-11-15T04:40:00.460Z,99780.47
2022-11-15T04:45:20.997Z,99816.69
2022-11-15T04:50:41.588Z,99769.78
2022-11-15T04:56:02.176Z,99741.91
2022-11-15T05:01:23.044Z,99778.22
2022-11-15T05:06:43.823Z,99752.66
2022-11-15T05:12:04.649Z,99802.09
2022-11-15T05:17:25.506Z,99741.56
2022-11-15T05:22:46.076Z,99664.97
2022-11-15T05:28:06.864Z,99751.25
2022-11-15T05:33:27.710Z,99803.00
2022-11-15T05:38:49.725Z,99751.25
2022-11-15T05:44:13.147Z,99739.56
2022-11-15T05:49:36.100Z,99786.69
2022-11-15T05:54:58.292Z,99781.53
2022-11-15T06:00:19.608Z,99776.41
2022-11-15T06:05:40.927Z,99687.88
2022-11-15T06:11:08.699Z,99487.63
2022-11-15T06:16:29.407Z,99720.44
2022-11-15T06:21:50.000Z,99723.13
2022-11-15T06:27:11.707Z,99714.63
2022-11-15T06:32:32.674Z,99638.28
2022-11-15T06:37:53.705Z,99672.03
2022-11-15T06:43:17.924Z,99637.13
2022-11-15T06:48:38.863Z,99684.09
2022-11-15T06:53:59.593Z,99585.69
2022-11-15T06:59:20.264Z,99642.88
2022-11-15T07:04:41.178Z,99652.09
2022-11-15T07:10:02.102Z,99679.50
2022-11-15T07:15:26.288Z,99692.03
2022-11-15T07:20:47.160Z,99586.50
2022-11-15T07:26:09.359Z,99608.75
2022-11-15T07:31:30.117Z,99691.09
2022-11-15T07:36:50.931Z,99684.28
2022-11-15T07:42:30.291Z,99573.56
2022-11-15T07:47:51.453Z,99653.31
2022-11-15T07:53:12.242Z,99642.22
2022-11-15T07:58:32.773Z,99604.50
2022-11-15T08:03:53.683Z,99569.53
2022-11-15T08:09:14.545Z,99656.44
2022-11-15T08:14:36.494Z,99497.75
2022-11-15T08:19:57.561Z,99654.91
2022-11-15T08:25:18.767Z,99655.75
2022-11-15T08:30:42.790Z,99648.16
2022-11-15T08:36:03.710Z,99618.34
2022-11-15T08:41:42.693Z,99591.56
2022-11-15T08:47:03.250Z,99434.00
2022-11-15T08:52:24.235Z,99505.34
2022-11-15T08:57:45.634Z,99569.19
2022-11-15T09:03:07.575Z,99597.25
2022-11-15T09:08:47.102Z,99586.88
2022-11-15T09:14:08.432Z,99500.41
2022-11-15T09:19:28.946Z,99576.88
2022-11-15T09:24:50.105Z,99528.09
2022-11-15T09:30:12.362Z,99581.06
2022-11-15T09:35:33.526Z,99593.84
2022-11-15T09:41:12.266Z,99527.81
2022-11-15T09:46:53.159Z,99593.41
2022-11-15T09:52:30.795Z,99484.22
2022-11-15T09:57:41.257Z,99496.00
2022-11-15T10:03:15.589Z,99577.88
2022-11-15T10:08:33.526Z,99568.66
2022-11-15T10:13:38.707Z,99537.06
2022-11-15T10:19:18.591Z,99472.47
2022-11-15T10:24:24.476Z,99514.44
2022-11-15T10:29:27.625Z,99489.56
2022-11-15T10:34:30.385Z,99430.84
2022-11-15T10:39:34.819Z,99526.91
2022-11-15T10:44:44.295Z,99416.44
2022-11-15T10:49:55.527Z,99492.06
2022-11-15T10:55:05.918Z,99507.06
2022-11-15T11:00:28.881Z,99477.59
2022-11-15T11:05:39.880Z,99502.00
2022-11-15T11:11:03.918Z,99448.69
2022-11-15T11:16:15.474Z,99481.34
2022-11-15T11:21:42.739Z,99412.84
2022-11-15T11:27:20.980Z,99449.88
2022-11-15T11:32:54.858Z,99464.13
2022-11-15T11:38:15.769Z,99465.81
2022-11-15T11:43:46.619Z,99400.66
2022-11-15T11:48:59.553Z,99461.13
2022-11-15T11:54:43.705Z,99457.34
2022-11-15T12:00:00.283Z,99380.69
2022-11-15T12:05:18.351Z,99401.91
2022-11-15T12:10:25.373Z,99435.59
2022-11-15T12:15:31.779Z,99433.75
2022-11-15T12:20:41.907Z,99370.59
2022-11-15T12:25:58.191Z,99413.91
2022-11-15T12:31:07.449Z,99308.41
2022-11-15T12:36:32.297Z,99387.88
2022-11-15T12:41:45.276Z,99249.69
2022-11-15T12:46:47.492Z,99390.44
2022-11-15T12:51:49.570Z,99376.59
2022-11-15T12:57:21.291Z,99366.47
2022-11-15T13:02:33.876Z,99252.66
2022-11-15T13:07:36.119Z,99360.84
2022-11-15T13:12:47.638Z,99355.91
2022-11-15T13:17:51.777Z,99182.88
2022-11-15T13:23:06.134Z,99344.63
2022-11-15T13:28:11.460Z,99337.59
2022-11-15T13:33:36.344Z,99291.16
2022-11-15T13:38:41.165Z,99330.66
2022-11-15T13:43:43.696Z,99327.22
2022-11-15T13:48:47.795Z,99303.19
2022-11-15T13:54:15.330Z,99319.56
2022-11-15T13:59:24.089Z,99301.88
2022-11-15T14:04:30.843Z,99309.00
2022-11-15T14:09:39.139Z,99303.81
2022-11-15T14:14:46.848Z,99250.38
2022-11-15T14:19:49.166Z,99288.34
2022-11-15T14:25:14.571Z,99269.09
2022-11-15T14:30:19.564Z,99155.03
2022-11-15T14:35:23.743Z,99293.50
2022-11-15T14:40:25.909Z,99276.28
2022-11-15T14:45:28.754Z,99268.47
2022-11-15T14:50:31.229Z,99175.38
2022-11-15T14:55:37.300Z,99254.06
2022-11-15T15:00:40.810Z,99213.72
2022-11-15T15:05:44.675Z,99258.66
2022-11-15T15:10:47.177Z,99245.66
2022-11-15T15:15:50.784Z,99242.47
2022-11-15T15:21:01.216Z,99241.66
2022-11-15T15:26:04.162Z,99214.63
2022-11-15T15:31:06.319Z,99234.78
2022-11-15T15:36:16.218Z,99177.59
2022-11-15T15:41:18.590Z,99219.25
2022-11-15T15:46:21.606Z,99167.66
2022-11-15T15:51:24.098Z,99190.94
2022-11-15T15:56:26.225Z,99196.84
2022-11-15T16:01:28.508Z,99171.41
2022-11-15T16:06:42.442Z,99182.44
2022-11-15T16:11:48.227Z,99190.84
2022-11-15T16:16:50.272Z,99125.28
2022-11-15T16:21:53.254Z,99181.28
2022-11-15T16:26:55.397Z,99179.53
2022-11-15T16:31:57.649Z,99153.31
2022-11-15T16:36:59.763Z,99167.41
2022-11-15T16:42:03.679Z,99120.88
2022-11-15T16:47:05.805Z,99066.75
2022-11-15T16:52:07.954Z,99155.31
2022-11-15T16:57:11.636Z,99159.63
2022-11-15T17:02:14.197Z,99084.06
2022-11-15T17:07:16.394Z,99106.38
2022-11-15T17:12:18.568Z,99095.03
2022-11-15T17:17:21.831Z,99150.75
2022-11-15T17:22:24.289Z,99152.69
2022-11-15T17:27:26.448Z,99114.84
2022-11-15T17:32:28.598Z,99088.72
2022-11-15T17:37:30.783Z,99067.56
2022-11-15T17:42:35.514Z,99066.75
2022-11-15T17:47:38.169Z,99093.09
2022-11-15T17:52:57.586Z,99106.19
2022-11-15T17:57:59.789Z,99132.59
2022-11-15T18:03:01.821Z,99048.50
2022-11-15T18:08:04.087Z,99111.69
2022-11-15T18:13:06.357Z,99061.00
2022-11-15T18:18:08.623Z,99119.91
2022-11-15T18:23:10.733Z,99116.44
2022-11-15T18:28:12.862Z,99069.94
2022-11-15T18:33:14.988Z,99102.28
2022-11-15T18:38:17.205Z,99033.41
2022-11-15T18:43:19.269Z,99109.50
2022-11-15T18:48:21.504Z,99097.56
2022-11-15T18:53:24.031Z,99099.28
2022-11-15T18:58:26.151Z,99064.50
2022-11-15T19:03:31.892Z,99093.34
2022-11-15T19:08:35.652Z,98990.16
2022-11-15T19:13:37.829Z,99086.44
2022-11-15T19:18:40.182Z,99083.81
2022-11-15T19:23:43.134Z,99076.13
2022-11-15T19:28:45.291Z,99052.38
2022-11-15T19:33:48.155Z,99008.69
2022-11-15T19:38:50.622Z,99078.75
2022-11-15T19:43:53.468Z,99059.44
2022-11-15T19:48:55.547Z,99063.13
2022-11-15T19:54:01.612Z,99000.19
2022-11-15T19:59:05.196Z,99010.41
2022-11-15T20:04:10.301Z,99031.59
2022-11-15T20:09:14.242Z,99039.47
2022-11-15T20:14:16.438Z,99063.06
2022-11-15T20:19:18.542Z,98983.13
2022-11-15T20:24:20.975Z,98984.13
2022-11-15T20:29:23.622Z,99060.25
2022-11-15T20:34:25.666Z,99053.16
2022-11-15T20:39:27.812Z,99039.22
2022-11-15T20:44:29.856Z,99054.97
2022-11-15T20:49:31.905Z,99057.63
2022-11-15T20:54:33.948Z,99055.91
2022-11-15T20:59:36.086Z,99012.25
2022-11-15T21:04:38.226Z,99052.38
2022-11-15T21:10:01.787Z,99048.84
2022-11-15T21:15:04.732Z,99059.13
2022-11-15T21:20:07.266Z,99055.59
2022-11-15T21:25:09.780Z,99026.91
2022-11-15T21:30:12.846Z,99062.50
2022-11-15T21:35:14.961Z,99048.66
2022-11-15T21:40:17.305Z,99038.09
2022-11-15T21:45:19.475Z,99012.38
2022-11-15T21:50:21.535Z,99055.19
2022-11-15T21:55:23.579Z,99056.75
2022-11-15T22:00:44.209Z,99055.88
2022-11-15T22:05:46.435Z,99039.25
2022-11-15T22:10:49.280Z,99056.69
2022-11-15T22:15:52.152Z,99056.63
2022-11-15T22:20:59.319Z,99057.44
2022-11-15T22:26:02.020Z,99027.78
2022-11-15T22:31:04.741Z,99049.75
2022-11-15T22:36:07.888Z,99041.09
2022-11-15T22:41:10.080Z,99039.47
2022-11-15T22:46:12.256Z,99010.34
2022-11-15T22:51:14.433Z,99041.09
2022-11-15T22:56:20.261Z,98986.72
2022-11-15T23:01:22.841Z,99038.34
2022-11-15T23:06:25.097Z,99002.34
2022-11-15T23:11:45.813Z,99043.47
2022-11-15T23:16:47.998Z,98978.75
2022-11-15T23:22:08.758Z,99034.84
2022-11-15T23:27:15.388Z,99039.09
2022-11-15T23:32:36.319Z,98972.16
2022-11-15T23:37:38.627Z,99050.94
2022-11-15T23:42:40.812Z,98982.41
2022-11-15T23:47:43.660Z,99040.31
2022-11-15T23:52:45.821Z,98970.16
2022-11-15T23:57:48.040Z,99004.13
